createdAt,value
2022-09-03T00:53:30.907Z,100323.41
2022-09-03T00:56:12.795Z,100319.63
2022-09-03T00:58:50.874Z,100325.38
2022-09-03T01:01:28.598Z,100322.56
2022-09-03T01:04:07.774Z,100320.94
2022-09-03T01:06:54.442Z,100317.19
2022-09-03T01:09:39.443Z,100314.97
2022-09-03T01:12:33.364Z,100321.19
2022-09-03T01:15:08.295Z,100310.16
2022-09-03T01:17:45.090Z,100314.16
2022-09-03T01:20:24.512Z,100322.22
2022-09-03T01:23:15.423Z,100333.91
2022-09-03T01:25:51.199Z,100323.88
2022-09-03T01:28:32.259Z,100320.47
2022-09-03T01:31:11.975Z,100326.69
2022-09-03T01:33:42.333Z,100318.16
2022-09-03T01:36:15.814Z,100324.44
2022-09-03T01:38:48.402Z,100327.47
2022-09-03T01:41:41.662Z,100319.19
2022-09-03T01:44:16.835Z,100326.25
2022-09-03T01:46:46.203Z,100321.53
2022-09-03T01:49:22.783Z,100320.03
2022-09-03T01:51:58.230Z,100310.53
2022-09-03T01:54:52.273Z,100310.63
2022-09-03T01:57:37.422Z,100304.66
2022-09-03T02:00:11.638Z,100312.72
2022-09-03T02:02:41.066Z,100304.56
2022-09-03T02:05:12.352Z,100310.19
2022-09-03T02:07:41.903Z,100314.94
2022-09-03T02:10:12.920Z,100313.31
2022-09-03T02:12:42.172Z,100321.63
2022-09-03T02:15:14.989Z,100318.59
2022-09-03T02:17:44.423Z,100321.28
2022-09-03T02:20:13.970Z,100322.47
2022-09-03T02:22:41.751Z,100322.31
2022-09-03T02:25:10.987Z,100321.28
2022-09-03T02:27:39.151Z,100312.84
2022-09-03T02:30:08.108Z,100317.16
2022-09-03T02:32:37.044Z,100322.31
2022-09-03T02:35:04.832Z,100321.16
2022-09-03T02:37:32.377Z,100317.09
2022-09-03T02:40:00.065Z,100323.72
2022-09-03T02:42:27.683Z,100322.94
2022-09-03T02:44:58.735Z,100319.06
2022-09-03T02:47:30.857Z,100327.38
2022-09-03T02:49:59.744Z,100329.72
2022-09-03T02:52:27.324Z,100324.44
2022-09-03T02:54:54.933Z,100319.31
2022-09-03T02:57:27.506Z,100323.03
2022-09-03T02:59:55.491Z,100311.56
2022-09-03T03:02:23.078Z,100324.91
2022-09-03T03:04:50.818Z,100318.25
2022-09-03T03:07:19.705Z,100321.41
2022-09-03T03:09:47.182Z,100313.09
2022-09-03T03:12:17.220Z,100318.47
2022-09-03T03:14:44.715Z,100319.19
2022-09-03T03:17:12.242Z,100315.78
2022-09-03T03:19:39.724Z,100316.38
2022-09-03T03:22:07.291Z,100312.41
2022-09-03T03:24:36.826Z,100304.88
2022-09-03T03:27:07.191Z,100305.34
2022-09-03T03:29:35.054Z,100313.09
2022-09-03T03:32:03.100Z,100309.72
2022-09-03T03:34:30.553Z,100304.31
2022-09-03T03:36:58.092Z,100318.25
2022-09-03T03:39:25.645Z,100313.09
2022-09-03T03:41:54.470Z,100307.94
2022-09-03T03:44:21.969Z,100312.16
2022-09-03T03:46:49.585Z,100303.84
2022-09-03T03:49:17.043Z,100310.41
2022-09-03T03:51:44.575Z,100310.28
2022-09-03T03:54:12.036Z,100304.88
2022-09-03T03:56:45.064Z,100303.84
2022-09-03T03:59:24.177Z,100297.28
2022-09-03T04:01:51.770Z,100299.75
2022-09-03T04:04:19.298Z,100299.63
2022-09-03T04:06:46.791Z,100294.25
2022-09-03T04:09:14.287Z,100298.47
2022-09-03T04:11:41.783Z,100298.00
2022-09-03T04:14:09.285Z,100294.81
2022-09-03T04:16:38.179Z,100303.13
2022-09-03T04:19:05.664Z,100302.22
2022-09-03T04:21:33.168Z,100293.44
2022-09-03T04:24:00.719Z,100293.44
2022-09-03T04:26:31.837Z,100296.47
2022-09-03T04:29:00.983Z,100295.41
2022-09-03T04:31:29.517Z,100302.78
2022-09-03T04:33:59.548Z,100305.47
2022-09-03T04:36:28.756Z,100302.81
2022-09-03T04:38:58.965Z,100303.84
2022-09-03T04:41:27.756Z,100311.69
2022-09-03T04:43:56.837Z,100307.69
2022-09-03T04:46:26.338Z,100295.53
2022-09-03T04:48:56.965Z,100297.88
2022-09-03T04:51:27.836Z,100293.66
2022-09-03T04:53:57.572Z,100298.13
2022-09-03T04:56:26.500Z,100289.81
2022-09-03T04:58:56.133Z,100292.50
2022-09-03T05:01:25.058Z,100300.56
2022-09-03T05:03:52.732Z,100294.94
2022-09-03T05:06:20.618Z,100298.69
2022-09-03T05:08:50.306Z,100302.66
2022-09-03T05:11:18.632Z,100300.47
2022-09-03T05:13:48.845Z,100303.94
2022-09-03T05:16:16.758Z,100303.38
2022-09-03T05:18:45.050Z,100300.34
2022-09-03T05:21:13.437Z,100301.50
2022-09-03T05:23:42.626Z,100306.56
2022-09-03T05:26:14.415Z,100308.78
2022-09-03T05:28:43.090Z,100312.88
2022-09-03T05:31:12.242Z,100313.94
2022-09-03T05:33:42.087Z,100316.13
2022-09-03T05:36:11.372Z,100326.78
2022-09-03T05:38:39.071Z,100323.56
2022-09-03T05:41:08.758Z,100328.25
2022-09-03T05:43:37.931Z,100323.94
2022-09-03T05:46:07.009Z,100323.66
2022-09-03T05:48:36.151Z,100323.78
2022-09-03T05:51:04.862Z,100319.22
2022-09-03T05:53:34.666Z,100330.13
2022-09-03T05:56:03.472Z,100331.31
2022-09-03T05:58:32.130Z,100330.13
2022-09-03T06:01:00.997Z,100342.16
2022-09-03T06:03:28.639Z,100335.84
2022-09-03T06:05:56.355Z,100340.22
2022-09-03T06:08:23.843Z,100351.38
2022-09-03T06:10:51.659Z,100361.41
2022-09-03T06:13:19.171Z,100356.28
2022-09-03T06:15:46.699Z,100360.50
2022-09-03T06:18:15.543Z,100362.94
2022-09-03T06:20:43.028Z,100359.78
2022-09-03T06:23:30.105Z,100356.97
2022-09-03T06:36:31.846Z,100364.44
2022-09-03T06:53:07.824Z,100362.09
2022-09-03T06:56:21.729Z,100351.03
2022-09-03T06:59:12.452Z,100358.13
2022-09-03T07:02:21.137Z,100362.47
2022-09-03T07:05:01.772Z,100363.19
2022-09-03T07:08:36.677Z,100373.03
2022-09-03T07:15:32.396Z,100378.25
2022-09-03T07:18:14.622Z,100382.69
2022-09-03T07:21:39.495Z,100380.69
2022-09-03T07:25:07.612Z,100371.88
2022-09-03T07:28:05.325Z,100368.22
2022-09-03T07:30:37.222Z,100376.50
2022-09-03T07:33:33.660Z,100379.13
2022-09-03T07:36:39.624Z,100382.53
2022-09-03T07:39:25.043Z,100368.59
2022-09-03T07:42:17.363Z,100374.56
2022-09-03T07:44:46.265Z,100378.91
2022-09-03T07:47:14.973Z,100380.03
2022-09-03T07:49:43.653Z,100384.63
2022-09-03T07:52:16.335Z,100385.91
2022-09-03T07:54:45.854Z,100391.59
2022-09-03T07:57:13.328Z,100394.16
2022-09-03T07:59:40.894Z,100390.28
2022-09-03T08:02:10.173Z,100399.22
2022-09-03T08:04:38.536Z,100403.31
2022-09-03T08:07:06.077Z,100399.09
2022-09-03T08:09:33.949Z,100404.63
2022-09-03T08:12:01.408Z,100399.25
2022-09-03T08:14:30.329Z,100403.22
2022-09-03T08:16:59.931Z,100399.03
2022-09-03T08:19:28.822Z,100405.94
2022-09-03T08:21:56.342Z,100396.22
2022-09-03T08:24:26.215Z,100405.91
2022-09-03T08:26:53.694Z,100406.25
2022-09-03T08:29:21.973Z,100402.97
2022-09-03T08:31:49.873Z,100403.88
2022-09-03T08:34:18.111Z,100407.47
2022-09-03T08:36:47.956Z,100404.16
2022-09-03T08:39:15.484Z,100404.06
2022-09-03T08:42:08.308Z,100405.25
2022-09-03T08:44:41.996Z,100413.25
2022-09-03T08:47:12.488Z,100413.63
2022-09-03T08:49:45.728Z,100424.53
2022-09-03T08:52:23.007Z,100423.56
2022-09-03T08:54:51.931Z,100423.38
2022-09-03T08:57:20.759Z,100422.91
2022-09-03T08:59:48.731Z,100417.50
2022-09-03T09:02:28.049Z,100416.16
2022-09-03T09:05:01.145Z,100416.59
2022-09-03T09:07:33.777Z,100428.94
2022-09-03T09:10:05.067Z,100422.28
2022-09-03T09:12:45.706Z,100424.19
2022-09-03T09:15:20.938Z,100423.75
2022-09-03T09:17:55.017Z,100431.09
2022-09-03T09:20:28.200Z,100439.06
2022-09-03T09:22:59.491Z,100430.47
2022-09-03T09:25:27.250Z,100444.63
2022-09-03T09:27:59.874Z,100449.72
2022-09-03T09:30:27.850Z,100445.78
2022-09-03T09:32:55.958Z,100445.69
2022-09-03T09:35:24.007Z,100424.94
2022-09-03T09:37:52.615Z,100428.03
2022-09-03T09:40:33.105Z,100441.47
2022-09-03T09:43:07.888Z,100433.78
2022-09-03T09:45:35.550Z,100431.66
2022-09-03T09:48:04.094Z,100431.16
2022-09-03T09:50:31.657Z,100439.31
2022-09-03T09:53:05.297Z,100431.75
2022-09-03T09:55:34.771Z,100439.75
2022-09-03T09:58:14.299Z,100453.22
2022-09-03T10:00:42.808Z,100457.31
2022-09-03T10:03:13.545Z,100441.38
2022-09-03T10:05:41.524Z,100433.28
2022-09-03T10:08:21.993Z,100438.22
2022-09-03T10:10:52.155Z,100438.69
2022-09-03T10:13:21.325Z,100426.47
2022-09-03T10:15:52.039Z,100430.00
2022-09-03T10:18:28.629Z,100446.38
2022-09-03T10:21:03.922Z,100440.31
2022-09-03T10:23:34.636Z,100425.03
2022-09-03T10:26:07.707Z,100422.47
2022-09-03T10:28:41.164Z,100421.94
2022-09-03T10:31:44.287Z,100424.50
2022-09-03T10:34:18.577Z,100419.81
2022-09-03T10:36:52.931Z,100427.63
2022-09-03T10:39:23.985Z,100432.63
2022-09-03T10:42:06.737Z,100426.56
2022-09-03T10:44:49.345Z,100416.94
2022-09-03T10:47:28.136Z,100425.63
2022-09-03T10:50:01.622Z,100417.28
2022-09-03T10:52:33.891Z,100417.44
2022-09-03T10:55:20.508Z,100411.78
2022-09-03T10:57:55.930Z,100415.63
2022-09-03T11:00:23.796Z,100429.16
2022-09-03T11:03:22.464Z,100427.28
2022-09-03T11:05:58.146Z,100416.22
2022-09-03T11:08:29.305Z,100418.63
2022-09-03T11:10:58.675Z,100421.44
2022-09-03T11:13:31.004Z,100414.63
2022-09-03T11:16:01.490Z,100410.41
2022-09-03T11:18:33.812Z,100412.34
2022-09-03T11:21:07.676Z,100418.19
2022-09-03T11:23:42.526Z,100415.63
2022-09-03T11:26:14.645Z,100409.59
2022-09-03T11:28:49.444Z,100406.38
2022-09-03T11:31:23.861Z,100402.97
2022-09-03T11:33:54.706Z,100393.25
2022-09-03T11:36:30.795Z,100391.34
2022-09-03T11:38:59.073Z,100388.13
2022-09-03T11:41:28.169Z,100387.22
2022-09-03T11:44:01.198Z,100377.50
2022-09-03T11:46:32.040Z,100381.91
2022-09-03T11:49:12.839Z,100385.44
2022-09-03T11:51:44.973Z,100375.66
2022-09-03T11:54:26.616Z,100379.19
2022-09-03T11:57:10.322Z,100369.84
2022-09-03T11:59:39.627Z,100374.25
2022-09-03T12:02:17.826Z,100369.38
2022-09-03T12:04:48.998Z,100363.13
2022-09-03T12:07:27.948Z,100369.91
2022-09-03T12:10:13.719Z,100356.84
2022-09-03T12:12:52.168Z,100357.34
2022-09-03T12:15:31.964Z,100357.31
2022-09-03T12:18:22.859Z,100353.47
2022-09-03T12:21:02.243Z,100353.97
2022-09-03T12:23:31.643Z,100349.09
2022-09-03T12:26:01.180Z,100354.50
2022-09-03T12:28:31.030Z,100356.13
2022-09-03T12:31:21.455Z,100354.53
2022-09-03T12:33:51.404Z,100351.78
2022-09-03T12:36:19.150Z,100350.19
2022-09-03T12:39:10.489Z,100346.69
2022-09-03T12:41:35.756Z,100348.06
2022-09-03T12:44:04.348Z,100331.59
2022-09-03T12:46:34.912Z,100336.25
2022-09-03T12:51:57.433Z,100329.19
2022-09-03T12:54:27.030Z,100335.72
2022-09-03T12:56:57.760Z,100336.81
2022-09-03T12:59:28.371Z,100328.41
2022-09-03T13:02:01.048Z,100334.34
2022-09-03T13:04:30.701Z,100334.63
2022-09-03T13:07:03.621Z,100340.34
2022-09-03T13:09:33.360Z,100336.25
2022-09-03T13:12:04.784Z,100336.56
2022-09-03T13:14:43.771Z,100339.81
2022-09-03T13:17:21.288Z,100345.25
2022-09-03T13:20:02.477Z,100346.88
2022-09-03T13:22:34.954Z,100350.41
2022-09-03T13:25:14.673Z,100341.69
2022-09-03T13:27:47.117Z,100338.72
2022-09-03T13:30:17.989Z,100346.06
2022-09-03T13:32:54.496Z,100342.00
2022-09-03T13:35:29.446Z,100344.69
2022-09-03T13:38:01.909Z,100348.78
2022-09-03T13:40:36.633Z,100350.94
2022-09-03T13:43:07.501Z,100350.94
2022-09-03T13:45:40.023Z,100335.72
2022-09-03T13:48:33.668Z,100338.41
2022-09-03T13:51:07.853Z,100338.63
2022-09-03T13:53:46.089Z,100344.38
2022-09-03T13:56:36.274Z,100339.44
2022-09-03T13:59:08.633Z,100346.84
2022-09-03T14:01:47.108Z,100343.81
2022-09-03T14:04:22.943Z,100328.03
2022-09-03T14:06:55.884Z,100337.25
2022-09-03T14:09:35.175Z,100336.94
2022-09-03T14:12:14.563Z,100328.00
2022-09-03T14:14:50.351Z,100335.59
2022-09-03T14:17:24.721Z,100331.03
2022-09-03T14:20:01.821Z,100320.38
2022-09-03T14:22:35.923Z,100333.09
2022-09-03T14:25:10.984Z,100324.22
2022-09-03T14:27:39.232Z,100328.34
2022-09-03T14:30:09.861Z,100323.50
2022-09-03T14:32:47.456Z,100329.22
2022-09-03T14:35:24.347Z,100340.91
2022-09-03T14:38:31.055Z,100328.88
2022-09-03T14:41:07.429Z,100326.94
2022-09-03T14:44:18.192Z,100328.88
2022-09-03T14:46:59.902Z,100320.91
2022-09-03T14:50:09.894Z,100331.47
2022-09-03T14:52:53.049Z,100335.03
2022-09-03T14:55:32.649Z,100331.19
2022-09-03T14:58:33.753Z,100309.38
2022-09-03T15:01:06.462Z,100323.53
2022-09-03T15:04:10.636Z,100320.66
2022-09-03T15:07:33.966Z,100320.09
2022-09-03T15:09:48.872Z,100320.34
2022-09-03T15:12:26.765Z,100318.00
2022-09-03T15:15:04.408Z,100310.19
2022-09-03T15:17:59.844Z,100315.31
2022-09-03T15:20:35.671Z,100311.72
2022-09-03T15:23:24.535Z,100308.03
2022-09-03T15:26:42.803Z,100299.28
2022-09-03T15:29:37.077Z,100304.00
2022-09-03T15:32:13.922Z,100310.34
2022-09-03T15:34:56.562Z,100308.03
2022-09-03T15:37:27.073Z,100312.56
2022-09-03T15:40:03.193Z,100307.19
2022-09-03T15:42:32.181Z,100319.56
2022-09-03T15:45:05.652Z,100315.78
2022-09-03T15:47:51.403Z,100324.75
2022-09-03T15:50:30.670Z,100321.81
2022-09-03T15:53:04.578Z,100321.81
2022-09-03T15:55:38.796Z,100330.78
2022-09-03T15:58:14.438Z,100326.69
2022-09-03T16:00:57.269Z,100347.09
2022-09-03T16:03:39.319Z,100338.44
2022-09-03T16:06:18.570Z,100349.81
2022-09-03T16:08:54.539Z,100347.09
2022-09-03T16:11:32.574Z,100336.81
2022-09-03T16:14:07.964Z,100332.75
2022-09-03T16:16:51.099Z,100333.00
2022-09-03T16:19:32.138Z,100325.06
2022-09-03T16:22:02.525Z,100333.56
2022-09-03T16:24:35.712Z,100331.66
2022-09-03T16:27:09.689Z,100324.31
2022-09-03T16:29:41.858Z,100329.19
2022-09-03T16:33:01.146Z,100331.38
2022-09-03T16:35:39.452Z,100338.72
2022-09-03T16:38:22.741Z,100333.81
2022-09-03T16:40:54.569Z,100340.06
2022-09-03T16:43:40.761Z,100344.44
2022-09-03T16:46:21.999Z,100342.78
2022-09-03T16:48:57.850Z,100349.06
2022-09-03T16:51:28.976Z,100348.22
2022-09-03T16:54:12.546Z,100346.03
2022-09-03T16:56:48.364Z,100346.06
2022-09-03T16:59:30.396Z,100348.78
2022-09-03T17:02:30.144Z,100366.13
2022-09-03T17:05:12.497Z,100387.22
2022-09-03T17:07:58.070Z,100387.94
2022-09-03T17:10:33.465Z,100392.94
2022-09-03T17:13:12.247Z,100393.88
2022-09-03T17:15:42.640Z,100384.34
2022-09-03T17:18:31.658Z,100382.63
2022-09-03T17:21:09.949Z,100390.41
2022-09-03T17:23:52.934Z,100385.13
2022-09-03T17:26:26.887Z,100377.00
2022-09-03T17:29:06.418Z,100375.22
2022-09-03T17:31:42.543Z,100370.00
2022-09-03T17:34:16.269Z,100368.31
2022-09-03T17:36:56.602Z,100365.81
2022-09-03T17:39:54.887Z,100376.03
2022-09-03T17:42:30.278Z,100361.94
2022-09-03T17:45:12.846Z,100362.66
2022-09-03T17:48:11.163Z,100372.91
2022-09-03T17:50:49.645Z,100369.16
2022-09-03T17:53:41.444Z,100368.47
2022-09-03T17:56:27.845Z,100375.34
2022-09-03T18:02:31.877Z,100381.75
2022-09-03T18:05:27.118Z,100386.84
2022-09-03T18:08:01.268Z,100386.72
2022-09-03T18:10:33.854Z,100398.56
2022-09-03T18:13:08.385Z,100395.56
2022-09-03T18:15:38.876Z,100402.22
2022-09-03T18:18:09.885Z,100404.63
2022-09-03T18:21:21.473Z,100413.69
2022-09-03T18:24:13.035Z,100417.88
2022-09-03T18:27:02.817Z,100424.94
2022-09-03T18:29:55.795Z,100427.88
2022-09-03T18:32:49.827Z,100435.81
2022-09-03T18:35:37.629Z,100437.44
2022-09-03T18:38:23.169Z,100449.44
2022-09-03T18:41:14.311Z,100448.09
2022-09-03T18:44:07.130Z,100456.13
2022-09-03T18:50:13.980Z,100462.25
2022-09-03T18:53:03.300Z,100463.59
2022-09-03T18:55:57.235Z,100463.19
2022-09-03T18:58:52.118Z,100467.91
2022-09-03T19:01:47.426Z,100468.69
2022-09-03T19:04:39.807Z,100478.72
2022-09-03T19:07:28.041Z,100474.34
2022-09-03T19:10:23.428Z,100474.59
2022-09-03T19:13:31.162Z,100481.34
2022-09-03T19:16:22.613Z,100477.59
2022-09-03T19:19:26.018Z,100477.13
2022-09-03T19:22:14.828Z,100487.16
2022-09-03T19:25:05.061Z,100480.53
2022-09-03T19:27:59.835Z,100498.53
2022-09-03T19:30:50.390Z,100501.16
2022-09-03T19:33:45.273Z,100505.41
2022-09-03T19:36:35.483Z,100496.53
2022-09-03T19:39:30.568Z,100502.88
2022-09-03T19:42:21.071Z,100508.13
2022-09-03T19:45:18.240Z,100501.53
2022-09-03T19:48:10.092Z,100510.69
2022-09-03T19:51:11.845Z,100519.91
2022-09-03T19:53:57.266Z,100504.72
2022-09-03T19:56:46.198Z,100518.53
2022-09-03T19:59:42.639Z,100518.94
2022-09-03T20:02:28.615Z,100513.16
2022-09-03T20:05:18.421Z,100522.09
2022-09-03T20:08:07.888Z,100522.75
2022-09-03T20:10:36.488Z,100525.72
2022-09-03T20:13:09.638Z,100531.94
2022-09-03T20:15:49.360Z,100525.50
2022-09-03T20:18:25.701Z,100537.44
2022-09-03T20:21:11.587Z,100537.09
2022-09-03T20:23:47.173Z,100536.63
2022-09-03T20:26:24.437Z,100544.41
2022-09-03T20:29:28.243Z,100537.34
2022-09-03T20:32:02.561Z,100538.78
2022-09-03T20:34:45.115Z,100544.72
2022-09-03T20:37:27.561Z,100544.88
2022-09-03T20:40:16.147Z,100548.50
2022-09-03T20:43:03.372Z,100539.69
2022-09-03T20:45:45.104Z,100544.97
2022-09-03T20:48:23.510Z,100542.13
2022-09-03T20:51:00.908Z,100546.06
2022-09-03T20:53:56.152Z,100548.22
2022-09-03T20:56:32.477Z,100541.56
2022-09-03T20:59:06.336Z,100543.09
2022-09-03T21:01:41.431Z,100547.84
2022-09-03T21:04:22.583Z,100539.66
2022-09-03T21:07:03.389Z,100547.59
2022-09-03T21:09:38.766Z,100549.22
2022-09-03T21:12:21.670Z,100549.53
2022-09-03T21:14:53.440Z,100548.06
2022-09-03T21:17:43.280Z,100553.44
2022-09-03T21:20:23.634Z,100552.84
2022-09-03T21:23:13.093Z,100547.31
2022-09-03T21:25:49.025Z,100558.69
2022-09-03T21:28:28.541Z,100550.31
2022-09-03T21:31:09.131Z,100553.19
2022-09-03T21:33:42.545Z,100556.44
2022-09-03T21:36:18.897Z,100552.22
2022-09-03T21:38:59.690Z,100549.97
2022-09-03T21:41:32.441Z,100554.88
2022-09-03T21:44:10.606Z,100558.72
2022-09-03T21:46:48.903Z,100555.91
2022-09-03T21:49:22.928Z,100563.09
2022-09-03T21:51:57.907Z,100559.44
2022-09-03T21:54:33.654Z,100551.78
2022-09-03T21:57:22.501Z,100569.22
2022-09-03T22:00:26.187Z,100574.94
2022-09-03T22:02:59.742Z,100584.13
2022-09-03T22:05:34.369Z,100589.31
2022-09-03T22:08:18.180Z,100582.81
2022-09-03T22:10:58.666Z,100587.13
2022-09-03T22:13:31.315Z,100583.03
2022-09-03T22:16:08.697Z,100588.88
2022-09-03T22:18:40.662Z,100594.31
2022-09-03T22:21:18.759Z,100590.22
2022-09-03T22:24:08.250Z,100590.22
2022-09-03T22:26:48.642Z,100592.91
2022-09-03T22:29:25.232Z,100579.81
2022-09-03T22:32:01.874Z,100573.25
2022-09-03T22:35:07.729Z,100580.19
2022-09-03T22:37:47.312Z,100583.88
2022-09-03T22:40:34.891Z,100579.47
2022-09-03T22:43:23.619Z,100589.69
2022-09-03T22:46:09.564Z,100587.44
2022-09-03T22:49:07.460Z,100593.56
2022-09-03T22:51:48.062Z,100589.19
2022-09-03T22:54:26.079Z,100597.13
2022-09-03T22:56:54.624Z,100602.69
2022-09-03T22:59:27.643Z,100598.56
2022-09-03T23:02:03.165Z,100600.56
2022-09-03T23:04:44.987Z,100597.06
2022-09-03T23:10:12.141Z,100599.75
2022-09-03T23:12:46.499Z,100609.09
2022-09-03T23:15:21.424Z,100605.88
2022-09-03T23:17:58.998Z,100604.34
2022-09-03T23:20:31.175Z,100614.66
2022-09-03T23:23:06.392Z,100611.69
2022-09-03T23:25:41.551Z,100613.38
2022-09-03T23:28:14.919Z,100606.72
2022-09-03T23:30:42.811Z,100613.53
2022-09-03T23:33:17.233Z,100605.09
2022-09-03T23:36:08.566Z,100614.47
2022-09-03T23:39:02.833Z,100616.09
2022-09-03T23:41:47.290Z,100611.69
2022-09-03T23:44:33.869Z,100622.00
2022-09-03T23:47:12.529Z,100617.25
2022-09-03T23:49:51.251Z,100623.69
2022-09-03T23:52:40.314Z,100622.97
2022-09-03T23:55:17.203Z,100623.44
2022-09-03T23:57:58.161Z,100626.47
